sensor_id;sensor_type;location;lat;lon;timestamp;P1;durP1;ratioP1;P2;durP2;ratioP2
10687;SDS011;5392;42.688;23.298;2022-08-21T00:02:01;22.15;;;16.58;;
10687;SDS011;5392;42.688;23.298;2022-08-21T00:04:27;21.65;;;15.82;;
10687;SDS011;5392;42.688;23.298;2022-08-21T00:06:55;22.35;;;15.65;;
10687;SDS011;5392;42.688;23.298;2022-08-21T00:09:23;20.60;;;16.27;;
10687;SDS011;5392;42.688;23.298;2022-08-21T00:11:50;21.58;;;16.17;;
10687;SDS011;5392;42.688;23.298;2022-08-21T00:14:16;27.35;;;17.55;;
10687;SDS011;5392;42.688;23.298;2022-08-21T00:16:43;26.77;;;16.92;;
10687;SDS011;5392;42.688;23.298;2022-08-21T00:19:10;20.83;;;15.73;;
10687;SDS011;5392;42.688;23.298;2022-08-21T00:21:38;20.10;;;14.18;;
10687;SDS011;5392;42.688;23.298;2022-08-21T00:24:09;14.70;;;11.70;;
10687;SDS011;5392;42.688;23.298;2022-08-21T00:26:36;18.67;;;12.25;;
10687;SDS011;5392;42.688;23.298;2022-08-21T00:29:03;18.20;;;12.88;;
10687;SDS011;5392;42.688;23.298;2022-08-21T00:31:30;16.98;;;13.13;;
10687;SDS011;5392;42.688;23.298;2022-08-21T00:33:57;21.52;;;14.15;;
10687;SDS011;5392;42.688;23.298;2022-08-21T00:36:26;13.68;;;11.15;;
10687;SDS011;5392;42.688;23.298;2022-08-21T00:38:53;20.27;;;13.20;;
10687;SDS011;5392;42.688;23.298;2022-08-21T00:41:20;16.35;;;12.18;;
10687;SDS011;5392;42.688;23.298;2022-08-21T00:44:09;13.93;;;10.65;;
10687;SDS011;5392;42.688;23.298;2022-08-21T00:46:38;14.50;;;10.80;;
10687;SDS011;5392;42.688;23.298;2022-08-21T00:49:06;16.35;;;11.52;;
10687;SDS011;5392;42.688;23.298;2022-08-21T00:51:37;16.90;;;12.77;;
10687;SDS011;5392;42.688;23.298;2022-08-21T00:54:07;15.93;;;12.90;;
10687;SDS011;5392;42.688;23.298;2022-08-21T00:56:45;16.73;;;11.48;;
10687;SDS011;5392;42.688;23.298;2022-08-21T00:59:17;9.88;;;9.00;;
10687;SDS011;5392;42.688;23.298;2022-08-21T01:01:45;10.63;;;8.80;;
10687;SDS011;5392;42.688;23.298;2022-08-21T01:04:13;10.40;;;8.77;;
10687;SDS011;5392;42.688;23.298;2022-08-21T01:06:40;12.73;;;9.95;;
10687;SDS011;5392;42.688;23.298;2022-08-21T01:09:06;14.32;;;10.05;;
10687;SDS011;5392;42.688;23.298;2022-08-21T01:11:33;15.48;;;10.20;;
10687;SDS011;5392;42.688;23.298;2022-08-21T01:14:00;11.55;;;10.13;;
10687;SDS011;5392;42.688;23.298;2022-08-21T01:16:27;11.25;;;9.70;;
10687;SDS011;5392;42.688;23.298;2022-08-21T01:18:55;13.40;;;9.32;;
10687;SDS011;5392;42.688;23.298;2022-08-21T01:21:23;12.52;;;9.27;;
10687;SDS011;5392;42.688;23.298;2022-08-21T01:23:54;11.43;;;9.45;;
10687;SDS011;5392;42.688;23.298;2022-08-21T01:26:25;9.80;;;8.70;;
10687;SDS011;5392;42.688;23.298;2022-08-21T01:31:40;12.73;;;8.98;;
10687;SDS011;5392;42.688;23.298;2022-08-21T01:34:07;11.75;;;8.15;;
10687;SDS011;5392;42.688;23.298;2022-08-21T01:36:34;10.65;;;8.27;;
10687;SDS011;5392;42.688;23.298;2022-08-21T01:39:02;15.60;;;9.23;;
10687;SDS011;5392;42.688;23.298;2022-08-21T01:41:30;11.50;;;8.80;;
10687;SDS011;5392;42.688;23.298;2022-08-21T01:43:57;11.48;;;9.23;;
10687;SDS011;5392;42.688;23.298;2022-08-21T01:46:24;10.77;;;9.15;;
10687;SDS011;5392;42.688;23.298;2022-08-21T01:48:51;10.30;;;9.27;;
10687;SDS011;5392;42.688;23.298;2022-08-21T01:51:17;10.23;;;8.38;;
10687;SDS011;5392;42.688;23.298;2022-08-21T01:53:45;12.23;;;9.38;;
10687;SDS011;5392;42.688;23.298;2022-08-21T01:56:14;10.40;;;9.32;;
10687;SDS011;5392;42.688;23.298;2022-08-21T01:58:43;13.32;;;10.00;;
10687;SDS011;5392;42.688;23.298;2022-08-21T02:01:11;11.98;;;10.60;;
10687;SDS011;5392;42.688;23.298;2022-08-21T02:03:38;14.07;;;11.32;;
10687;SDS011;5392;42.688;23.298;2022-08-21T02:06:11;18.65;;;12.45;;
10687;SDS011;5392;42.688;23.298;2022-08-21T02:08:40;20.85;;;13.77;;
10687;SDS011;5392;42.688;23.298;2022-08-21T02:11:06;19.23;;;15.18;;
10687;SDS011;5392;42.688;23.298;2022-08-21T02:13:33;23.63;;;14.80;;
10687;SDS011;5392;42.688;23.298;2022-08-21T02:16:00;17.88;;;13.82;;
10687;SDS011;5392;42.688;23.298;2022-08-21T02:18:27;18.20;;;14.07;;
10687;SDS011;5392;42.688;23.298;2022-08-21T02:20:54;20.80;;;13.85;;
10687;SDS011;5392;42.688;23.298;2022-08-21T02:23:22;13.02;;;10.65;;
10687;SDS011;5392;42.688;23.298;2022-08-21T02:25:59;13.30;;;10.65;;
10687;SDS011;5392;42.688;23.298;2022-08-21T02:28:29;9.27;;;8.05;;
10687;SDS011;5392;42.688;23.298;2022-08-21T02:30:56;10.60;;;9.48;;
10687;SDS011;5392;42.688;23.298;2022-08-21T02:33:24;10.10;;;9.20;;
10687;SDS011;5392;42.688;23.298;2022-08-21T02:35:52;11.55;;;9.68;;
10687;SDS011;5392;42.688;23.298;2022-08-21T02:38:21;10.68;;;8.80;;
10687;SDS011;5392;42.688;23.298;2022-08-21T02:40:50;11.13;;;9.13;;
10687;SDS011;5392;42.688;23.298;2022-08-21T02:43:18;10.85;;;8.75;;
10687;SDS011;5392;42.688;23.298;2022-08-21T02:45:47;10.85;;;9.00;;
10687;SDS011;5392;42.688;23.298;2022-08-21T02:48:20;16.88;;;10.57;;
10687;SDS011;5392;42.688;23.298;2022-08-21T02:50:55;16.45;;;12.73;;
10687;SDS011;5392;42.688;23.298;2022-08-21T02:53:43;16.83;;;9.82;;
10687;SDS011;5392;42.688;23.298;2022-08-21T02:56:13;12.35;;;10.80;;
10687;SDS011;5392;42.688;23.298;2022-08-21T02:58:45;12.15;;;9.13;;
10687;SDS011;5392;42.688;23.298;2022-08-21T03:01:14;18.83;;;13.43;;
10687;SDS011;5392;42.688;23.298;2022-08-21T03:03:42;30.17;;;17.77;;
10687;SDS011;5392;42.688;23.298;2022-08-21T03:06:13;31.80;;;19.70;;
10687;SDS011;5392;42.688;23.298;2022-08-21T03:08:41;33.35;;;20.17;;
10687;SDS011;5392;42.688;23.298;2022-08-21T03:11:12;32.78;;;19.30;;
10687;SDS011;5392;42.688;23.298;2022-08-21T03:13:41;28.75;;;17.58;;
10687;SDS011;5392;42.688;23.298;2022-08-21T03:16:08;30.08;;;17.77;;
10687;SDS011;5392;42.688;23.298;2022-08-21T03:18:35;30.92;;;17.25;;
10687;SDS011;5392;42.688;23.298;2022-08-21T03:21:03;26.95;;;17.45;;
10687;SDS011;5392;42.688;23.298;2022-08-21T03:23:30;39.80;;;23.70;;
10687;SDS011;5392;42.688;23.298;2022-08-21T03:25:59;39.40;;;23.08;;
10687;SDS011;5392;42.688;23.298;2022-08-21T03:28:26;40.58;;;23.27;;
10687;SDS011;5392;42.688;23.298;2022-08-21T03:30:53;42.83;;;23.80;;
10687;SDS011;5392;42.688;23.298;2022-08-21T03:33:20;44.03;;;25.00;;
10687;SDS011;5392;42.688;23.298;2022-08-21T03:35:52;40.97;;;22.60;;
10687;SDS011;5392;42.688;23.298;2022-08-21T03:38:27;42.90;;;23.33;;
10687;SDS011;5392;42.688;23.298;2022-08-21T03:40:55;46.10;;;23.02;;
10687;SDS011;5392;42.688;23.298;2022-08-21T03:43:22;44.17;;;23.55;;
10687;SDS011;5392;42.688;23.298;2022-08-21T03:45:49;44.25;;;26.27;;
10687;SDS011;5392;42.688;23.298;2022-08-21T03:48:17;51.47;;;26.92;;
10687;SDS011;5392;42.688;23.298;2022-08-21T03:50:45;47.75;;;26.38;;
10687;SDS011;5392;42.688;23.298;2022-08-21T03:53:14;39.45;;;23.95;;
10687;SDS011;5392;42.688;23.298;2022-08-21T03:55:44;35.28;;;22.20;;
10687;SDS011;5392;42.688;23.298;2022-08-21T03:58:13;36.13;;;21.85;;
10687;SDS011;5392;42.688;23.298;2022-08-21T04:00:47;32.45;;;21.20;;
10687;SDS011;5392;42.688;23.298;2022-08-21T04:03:16;33.60;;;21.05;;
10687;SDS011;5392;42.688;23.298;2022-08-21T04:05:44;31.70;;;22.38;;
10687;SDS011;5392;42.688;23.298;2022-08-21T04:08:12;34.15;;;22.10;;
10687;SDS011;5392;42.688;23.298;2022-08-21T04:10:40;29.83;;;21.52;;
10687;SDS011;5392;42.688;23.298;2022-08-21T04:13:09;27.48;;;19.33;;
10687;SDS011;5392;42.688;23.298;2022-08-21T04:15:36;26.05;;;18.92;;
10687;SDS011;5392;42.688;23.298;2022-08-21T04:18:03;24.95;;;18.17;;
10687;SDS011;5392;42.688;23.298;2022-08-21T04:20:31;22.65;;;16.55;;
10687;SDS011;5392;42.688;23.298;2022-08-21T04:23:00;20.15;;;14.95;;
10687;SDS011;5392;42.688;23.298;2022-08-21T04:25:27;21.83;;;15.15;;
10687;SDS011;5392;42.688;23.298;2022-08-21T04:27:54;20.75;;;14.55;;
10687;SDS011;5392;42.688;23.298;2022-08-21T04:30:22;18.75;;;14.05;;
10687;SDS011;5392;42.688;23.298;2022-08-21T04:32:54;19.98;;;13.70;;
10687;SDS011;5392;42.688;23.298;2022-08-21T04:35:22;14.80;;;12.43;;
10687;SDS011;5392;42.688;23.298;2022-08-21T04:37:50;16.92;;;12.82;;
10687;SDS011;5392;42.688;23.298;2022-08-21T04:40:18;18.98;;;13.10;;
10687;SDS011;5392;42.688;23.298;2022-08-21T04:42:48;16.35;;;12.75;;
10687;SDS011;5392;42.688;23.298;2022-08-21T04:45:17;15.35;;;11.23;;
10687;SDS011;5392;42.688;23.298;2022-08-21T04:47:48;13.43;;;11.48;;
10687;SDS011;5392;42.688;23.298;2022-08-21T04:50:18;11.85;;;9.48;;
10687;SDS011;5392;42.688;23.298;2022-08-21T04:52:46;9.40;;;8.50;;
10687;SDS011;5392;42.688;23.298;2022-08-21T04:55:14;9.32;;;8.50;;
10687;SDS011;5392;42.688;23.298;2022-08-21T04:57:44;8.85;;;8.02;;
10687;SDS011;5392;42.688;23.298;2022-08-21T05:00:14;10.32;;;7.32;;
10687;SDS011;5392;42.688;23.298;2022-08-21T05:02:45;10.55;;;7.68;;
10687;SDS011;5392;42.688;23.298;2022-08-21T05:05:18;8.65;;;7.18;;
10687;SDS011;5392;42.688;23.298;2022-08-21T05:07:45;7.57;;;6.88;;
10687;SDS011;5392;42.688;23.298;2022-08-21T05:10:12;7.05;;;5.70;;
10687;SDS011;5392;42.688;23.298;2022-08-21T05:12:43;9.35;;;5.55;;
10687;SDS011;5392;42.688;23.298;2022-08-21T05:15:12;6.35;;;5.63;;
10687;SDS011;5392;42.688;23.298;2022-08-21T05:17:39;5.93;;;5.35;;
10687;SDS011;5392;42.688;23.298;2022-08-21T05:20:08;8.05;;;5.22;;
10687;SDS011;5392;42.688;23.298;2022-08-21T05:22:36;6.47;;;5.35;;
10687;SDS011;5392;42.688;23.298;2022-08-21T05:25:04;7.30;;;5.43;;
10687;SDS011;5392;42.688;23.298;2022-08-21T05:27:36;8.13;;;4.97;;
10687;SDS011;5392;42.688;23.298;2022-08-21T05:30:05;5.15;;;4.63;;
10687;SDS011;5392;42.688;23.298;2022-08-21T05:32:34;6.85;;;5.68;;
10687;SDS011;5392;42.688;23.298;2022-08-21T05:35:02;9.65;;;5.55;;
10687;SDS011;5392;42.688;23.298;2022-08-21T05:37:30;8.38;;;5.38;;
10687;SDS011;5392;42.688;23.298;2022-08-21T05:39:57;6.47;;;5.93;;
10687;SDS011;5392;42.688;23.298;2022-08-21T05:42:45;6.10;;;4.93;;
10687;SDS011;5392;42.688;23.298;2022-08-21T05:45:23;6.25;;;5.25;;
10687;SDS011;5392;42.688;23.298;2022-08-21T05:48:19;7.80;;;4.25;;
10687;SDS011;5392;42.688;23.298;2022-08-21T05:50:48;5.07;;;4.25;;
10687;SDS011;5392;42.688;23.298;2022-08-21T05:53:17;5.57;;;5.00;;
10687;SDS011;5392;42.688;23.298;2022-08-21T05:55:45;8.90;;;5.13;;
10687;SDS011;5392;42.688;23.298;2022-08-21T05:58:14;5.97;;;5.47;;
10687;SDS011;5392;42.688;23.298;2022-08-21T06:00:45;6.25;;;5.70;;
10687;SDS011;5392;42.688;23.298;2022-08-21T06:03:18;7.53;;;5.85;;
10687;SDS011;5392;42.688;23.298;2022-08-21T06:05:47;6.75;;;6.13;;
10687;SDS011;5392;42.688;23.298;2022-08-21T06:08:15;11.60;;;7.30;;
10687;SDS011;5392;42.688;23.298;2022-08-21T06:10:42;9.55;;;7.30;;
10687;SDS011;5392;42.688;23.298;2022-08-21T06:13:10;9.80;;;6.88;;
10687;SDS011;5392;42.688;23.298;2022-08-21T06:15:37;8.55;;;7.47;;
10687;SDS011;5392;42.688;23.298;2022-08-21T06:18:04;8.57;;;7.50;;
10687;SDS011;5392;42.688;23.298;2022-08-21T06:20:31;8.70;;;7.78;;
10687;SDS011;5392;42.688;23.298;2022-08-21T06:22:59;8.27;;;7.38;;
10687;SDS011;5392;42.688;23.298;2022-08-21T06:25:26;9.32;;;7.43;;
10687;SDS011;5392;42.688;23.298;2022-08-21T06:27:53;8.20;;;7.40;;
10687;SDS011;5392;42.688;23.298;2022-08-21T06:30:27;8.23;;;7.47;;
10687;SDS011;5392;42.688;23.298;2022-08-21T06:32:54;11.68;;;8.77;;
10687;SDS011;5392;42.688;23.298;2022-08-21T06:35:20;12.40;;;9.60;;
10687;SDS011;5392;42.688;23.298;2022-08-21T06:37:47;10.55;;;8.05;;
10687;SDS011;5392;42.688;23.298;2022-08-21T06:40:14;9.18;;;7.65;;
10687;SDS011;5392;42.688;23.298;2022-08-21T06:42:41;11.68;;;7.75;;
10687;SDS011;5392;42.688;23.298;2022-08-21T06:45:09;7.72;;;7.03;;
10687;SDS011;5392;42.688;23.298;2022-08-21T06:47:36;16.42;;;9.07;;
10687;SDS011;5392;42.688;23.298;2022-08-21T06:50:03;9.82;;;7.25;;
10687;SDS011;5392;42.688;23.298;2022-08-21T06:52:37;8.73;;;7.18;;
10687;SDS011;5392;42.688;23.298;2022-08-21T06:55:05;9.88;;;7.25;;
10687;SDS011;5392;42.688;23.298;2022-08-21T06:57:34;7.60;;;6.85;;
10687;SDS011;5392;42.688;23.298;2022-08-21T07:00:03;8.10;;;7.07;;
10687;SDS011;5392;42.688;23.298;2022-08-21T07:02:31;15.40;;;8.88;;
10687;SDS011;5392;42.688;23.298;2022-08-21T07:04:59;10.60;;;9.48;;
10687;SDS011;5392;42.688;23.298;2022-08-21T07:07:42;12.50;;;10.48;;
10687;SDS011;5392;42.688;23.298;2022-08-21T07:10:09;11.48;;;9.02;;
10687;SDS011;5392;42.688;23.298;2022-08-21T07:12:48;13.02;;;8.35;;
10687;SDS011;5392;42.688;23.298;2022-08-21T07:15:24;14.82;;;11.10;;
10687;SDS011;5392;42.688;23.298;2022-08-21T07:17:51;9.48;;;7.93;;
10687;SDS011;5392;42.688;23.298;2022-08-21T07:20:18;10.95;;;6.90;;
10687;SDS011;5392;42.688;23.298;2022-08-21T07:22:45;15.07;;;7.88;;
10687;SDS011;5392;42.688;23.298;2022-08-21T07:25:12;17.15;;;9.90;;
10687;SDS011;5392;42.688;23.298;2022-08-21T07:27:38;8.20;;;6.10;;
10687;SDS011;5392;42.688;23.298;2022-08-21T07:30:05;12.45;;;6.63;;
10687;SDS011;5392;42.688;23.298;2022-08-21T07:32:33;7.50;;;5.68;;
10687;SDS011;5392;42.688;23.298;2022-08-21T07:34:59;11.85;;;6.53;;
10687;SDS011;5392;42.688;23.298;2022-08-21T07:37:26;8.82;;;5.53;;
10687;SDS011;5392;42.688;23.298;2022-08-21T07:39:53;9.30;;;5.75;;
10687;SDS011;5392;42.688;23.298;2022-08-21T07:42:19;8.98;;;5.00;;
10687;SDS011;5392;42.688;23.298;2022-08-21T07:44:46;7.80;;;5.70;;
10687;SDS011;5392;42.688;23.298;2022-08-21T07:47:16;6.28;;;5.68;;
10687;SDS011;5392;42.688;23.298;2022-08-21T07:50:02;10.45;;;6.10;;
10687;SDS011;5392;42.688;23.298;2022-08-21T07:52:30;8.02;;;5.90;;
10687;SDS011;5392;42.688;23.298;2022-08-21T07:54:58;14.13;;;5.63;;
10687;SDS011;5392;42.688;23.298;2022-08-21T07:57:31;6.97;;;5.03;;
10687;SDS011;5392;42.688;23.298;2022-08-21T07:59:58;16.95;;;10.50;;
10687;SDS011;5392;42.688;23.298;2022-08-21T08:02:26;9.15;;;5.40;;
10687;SDS011;5392;42.688;23.298;2022-08-21T08:04:54;8.90;;;6.57;;
10687;SDS011;5392;42.688;23.298;2022-08-21T08:07:25;6.55;;;5.80;;
10687;SDS011;5392;42.688;23.298;2022-08-21T08:09:52;7.78;;;6.07;;
10687;SDS011;5392;42.688;23.298;2022-08-21T08:12:19;5.63;;;5.15;;
10687;SDS011;5392;42.688;23.298;2022-08-21T08:14:47;7.70;;;5.82;;
10687;SDS011;5392;42.688;23.298;2022-08-21T08:17:13;7.07;;;5.95;;
10687;SDS011;5392;42.688;23.298;2022-08-21T08:19:40;7.22;;;5.53;;
10687;SDS011;5392;42.688;23.298;2022-08-21T08:22:14;7.40;;;6.68;;
10687;SDS011;5392;42.688;23.298;2022-08-21T08:24:48;11.18;;;6.63;;
10687;SDS011;5392;42.688;23.298;2022-08-21T08:27:16;6.82;;;6.05;;
10687;SDS011;5392;42.688;23.298;2022-08-21T08:29:43;9.27;;;6.05;;
10687;SDS011;5392;42.688;23.298;2022-08-21T08:32:10;8.07;;;5.82;;
10687;SDS011;5392;42.688;23.298;2022-08-21T08:34:37;5.43;;;4.93;;
10687;SDS011;5392;42.688;23.298;2022-08-21T08:37:06;5.30;;;4.95;;
10687;SDS011;5392;42.688;23.298;2022-08-21T08:39:34;5.53;;;5.13;;
10687;SDS011;5392;42.688;23.298;2022-08-21T08:47:44;5.60;;;4.90;;
10687;SDS011;5392;42.688;23.298;2022-08-21T08:50:25;6.53;;;4.85;;
10687;SDS011;5392;42.688;23.298;2022-08-21T08:53:07;5.82;;;4.82;;
10687;SDS011;5392;42.688;23.298;2022-08-21T08:55:39;7.40;;;4.70;;
10687;SDS011;5392;42.688;23.298;2022-08-21T08:58:42;4.97;;;4.57;;
10687;SDS011;5392;42.688;23.298;2022-08-21T09:01:04;8.68;;;4.35;;
10687;SDS011;5392;42.688;23.298;2022-08-21T09:03:40;6.90;;;5.05;;
10687;SDS011;5392;42.688;23.298;2022-08-21T09:06:19;8.43;;;4.72;;
10687;SDS011;5392;42.688;23.298;2022-08-21T09:08:56;8.32;;;4.72;;
10687;SDS011;5392;42.688;23.298;2022-08-21T09:25:08;4.90;;;4.50;;
10687;SDS011;5392;42.688;23.298;2022-08-21T09:27:41;4.43;;;2.40;;
10687;SDS011;5392;42.688;23.298;2022-08-21T09:30:09;5.03;;;2.90;;
10687;SDS011;5392;42.688;23.298;2022-08-21T09:32:36;5.22;;;3.45;;
10687;SDS011;5392;42.688;23.298;2022-08-21T09:37:45;7.50;;;4.32;;
10687;SDS011;5392;42.688;23.298;2022-08-21T09:43:00;7.32;;;4.28;;
10687;SDS011;5392;42.688;23.298;2022-08-21T09:45:30;4.38;;;3.15;;
10687;SDS011;5392;42.688;23.298;2022-08-21T09:48:12;5.63;;;3.20;;
10687;SDS011;5392;42.688;23.298;2022-08-21T09:50:45;4.25;;;2.80;;
10687;SDS011;5392;42.688;23.298;2022-08-21T09:53:24;3.70;;;2.67;;
10687;SDS011;5392;42.688;23.298;2022-08-21T09:56:04;4.72;;;3.05;;
10687;SDS011;5392;42.688;23.298;2022-08-21T09:59:01;9.30;;;3.55;;
10687;SDS011;5392;42.688;23.298;2022-08-21T10:01:44;5.28;;;3.20;;
10687;SDS011;5392;42.688;23.298;2022-08-21T10:04:15;3.28;;;2.97;;
10687;SDS011;5392;42.688;23.298;2022-08-21T10:06:47;5.50;;;2.88;;
10687;SDS011;5392;42.688;23.298;2022-08-21T10:09:14;4.32;;;2.53;;
10687;SDS011;5392;42.688;23.298;2022-08-21T10:11:58;8.20;;;2.47;;
10687;SDS011;5392;42.688;23.298;2022-08-21T10:17:24;3.22;;;1.95;;
10687;SDS011;5392;42.688;23.298;2022-08-21T10:25:31;3.58;;;2.40;;
10687;SDS011;5392;42.688;23.298;2022-08-21T10:31:00;2.85;;;2.13;;
10687;SDS011;5392;42.688;23.298;2022-08-21T10:36:24;3.63;;;1.98;;
10687;SDS011;5392;42.688;23.298;2022-08-21T10:44:41;6.28;;;2.67;;
10687;SDS011;5392;42.688;23.298;2022-08-21T10:50:05;5.35;;;3.05;;
10687;SDS011;5392;42.688;23.298;2022-08-21T10:52:56;6.13;;;3.10;;
10687;SDS011;5392;42.688;23.298;2022-08-21T10:55:37;5.78;;;2.85;;
10687;SDS011;5392;42.688;23.298;2022-08-21T10:58:11;2.97;;;2.40;;
10687;SDS011;5392;42.688;23.298;2022-08-21T11:00:48;2.72;;;2.10;;
10687;SDS011;5392;42.688;23.298;2022-08-21T11:03:29;3.92;;;2.53;;
10687;SDS011;5392;42.688;23.298;2022-08-21T11:06:09;3.17;;;2.92;;
10687;SDS011;5392;42.688;23.298;2022-08-21T11:08:39;3.95;;;2.78;;
10687;SDS011;5392;42.688;23.298;2022-08-21T11:11:25;7.40;;;3.45;;
10687;SDS011;5392;42.688;23.298;2022-08-21T11:14:09;4.10;;;2.90;;
10687;SDS011;5392;42.688;23.298;2022-08-21T11:16:37;4.18;;;3.17;;
10687;SDS011;5392;42.688;23.298;2022-08-21T11:19:11;4.57;;;2.92;;
10687;SDS011;5392;42.688;23.298;2022-08-21T11:21:48;3.92;;;2.88;;
10687;SDS011;5392;42.688;23.298;2022-08-21T11:24:29;4.75;;;4.15;;
10687;SDS011;5392;42.688;23.298;2022-08-21T11:29:58;3.65;;;2.90;;
10687;SDS011;5392;42.688;23.298;2022-08-21T11:49:18;2.10;;;2.00;;
10687;SDS011;5392;42.688;23.298;2022-08-21T11:51:54;5.13;;;1.88;;
10687;SDS011;5392;42.688;23.298;2022-08-21T11:57:18;1.90;;;1.60;;
10687;SDS011;5392;42.688;23.298;2022-08-21T11:59:57;2.92;;;1.65;;
10687;SDS011;5392;42.688;23.298;2022-08-21T12:02:33;1.95;;;1.60;;
10687;SDS011;5392;42.688;23.298;2022-08-21T12:05:04;1.70;;;1.50;;
10687;SDS011;5392;42.688;23.298;2022-08-21T12:07:38;2.20;;;1.77;;
10687;SDS011;5392;42.688;23.298;2022-08-21T12:10:18;3.95;;;1.40;;
10687;SDS011;5392;42.688;23.298;2022-08-21T12:13:05;4.85;;;1.67;;
10687;SDS011;5392;42.688;23.298;2022-08-21T12:15:37;4.20;;;1.92;;
10687;SDS011;5392;42.688;23.298;2022-08-21T12:23:32;1.90;;;1.70;;
10687;SDS011;5392;42.688;23.298;2022-08-21T12:28:37;2.15;;;1.35;;
10687;SDS011;5392;42.688;23.298;2022-08-21T12:31:16;3.95;;;1.73;;
10687;SDS011;5392;42.688;23.298;2022-08-21T12:33:47;2.78;;;1.35;;
10687;SDS011;5392;42.688;23.298;2022-08-21T12:36:20;3.63;;;1.77;;
10687;SDS011;5392;42.688;23.298;2022-08-21T12:38:52;3.30;;;2.03;;
10687;SDS011;5392;42.688;23.298;2022-08-21T12:44:10;2.65;;;2.00;;
10687;SDS011;5392;42.688;23.298;2022-08-21T12:46:48;2.38;;;2.15;;
10687;SDS011;5392;42.688;23.298;2022-08-21T12:49:45;2.05;;;1.42;;
10687;SDS011;5392;42.688;23.298;2022-08-21T12:52:25;4.63;;;2.20;;
10687;SDS011;5392;42.688;23.298;2022-08-21T12:55:04;3.42;;;2.42;;
10687;SDS011;5392;42.688;23.298;2022-08-21T12:57:31;2.40;;;1.67;;
10687;SDS011;5392;42.688;23.298;2022-08-21T12:59:59;2.17;;;1.70;;
10687;SDS011;5392;42.688;23.298;2022-08-21T13:02:31;2.40;;;1.65;;
10687;SDS011;5392;42.688;23.298;2022-08-21T13:05:05;2.45;;;2.22;;
10687;SDS011;5392;42.688;23.298;2022-08-21T13:07:35;2.95;;;2.03;;
10687;SDS011;5392;42.688;23.298;2022-08-21T13:10:06;2.00;;;1.83;;
10687;SDS011;5392;42.688;23.298;2022-08-21T13:12:46;4.93;;;1.70;;
10687;SDS011;5392;42.688;23.298;2022-08-21T13:15:14;3.25;;;1.98;;
10687;SDS011;5392;42.688;23.298;2022-08-21T13:17:49;5.72;;;2.40;;
10687;SDS011;5392;42.688;23.298;2022-08-21T13:20:21;4.18;;;1.63;;
10687;SDS011;5392;42.688;23.298;2022-08-21T13:22:50;4.30;;;2.05;;
10687;SDS011;5392;42.688;23.298;2022-08-21T13:25:19;5.82;;;2.28;;
10687;SDS011;5392;42.688;23.298;2022-08-21T13:28:03;3.33;;;1.85;;
10687;SDS011;5392;42.688;23.298;2022-08-21T13:30:32;2.40;;;1.60;;
10687;SDS011;5392;42.688;23.298;2022-08-21T13:33:01;3.63;;;1.65;;
10687;SDS011;5392;42.688;23.298;2022-08-21T13:35:48;1.83;;;1.50;;
10687;SDS011;5392;42.688;23.298;2022-08-21T13:38:36;4.88;;;1.67;;
10687;SDS011;5392;42.688;23.298;2022-08-21T13:43:35;4.03;;;1.70;;
10687;SDS011;5392;42.688;23.298;2022-08-21T13:46:07;4.53;;;1.55;;
10687;SDS011;5392;42.688;23.298;2022-08-21T13:48:38;3.67;;;1.40;;
10687;SDS011;5392;42.688;23.298;2022-08-21T13:51:05;7.35;;;1.42;;
10687;SDS011;5392;42.688;23.298;2022-08-21T13:53:36;2.05;;;1.52;;
10687;SDS011;5392;42.688;23.298;2022-08-21T13:56:03;4.32;;;1.50;;
10687;SDS011;5392;42.688;23.298;2022-08-21T13:58:34;2.35;;;1.60;;
10687;SDS011;5392;42.688;23.298;2022-08-21T14:01:18;2.78;;;1.50;;
10687;SDS011;5392;42.688;23.298;2022-08-21T14:03:49;3.95;;;1.58;;
10687;SDS011;5392;42.688;23.298;2022-08-21T14:06:20;1.90;;;1.38;;
10687;SDS011;5392;42.688;23.298;2022-08-21T14:08:53;2.67;;;1.35;;
10687;SDS011;5392;42.688;23.298;2022-08-21T14:11:26;3.17;;;1.75;;
10687;SDS011;5392;42.688;23.298;2022-08-21T14:14:06;2.28;;;1.85;;
10687;SDS011;5392;42.688;23.298;2022-08-21T14:16:56;2.22;;;1.80;;
10687;SDS011;5392;42.688;23.298;2022-08-21T14:19:47;2.88;;;1.90;;
10687;SDS011;5392;42.688;23.298;2022-08-21T14:25:30;2.17;;;1.48;;
10687;SDS011;5392;42.688;23.298;2022-08-21T14:30:53;3.17;;;2.10;;
10687;SDS011;5392;42.688;23.298;2022-08-21T14:33:26;5.80;;;2.22;;
10687;SDS011;5392;42.688;23.298;2022-08-21T14:35:57;10.57;;;2.42;;
10687;SDS011;5392;42.688;23.298;2022-08-21T14:38:25;3.83;;;2.20;;
10687;SDS011;5392;42.688;23.298;2022-08-21T14:40:58;5.55;;;3.28;;
10687;SDS011;5392;42.688;23.298;2022-08-21T14:43:30;7.93;;;3.60;;
10687;SDS011;5392;42.688;23.298;2022-08-21T14:45:57;4.13;;;3.63;;
10687;SDS011;5392;42.688;23.298;2022-08-21T14:48:24;7.20;;;2.63;;
10687;SDS011;5392;42.688;23.298;2022-08-21T14:50:51;3.47;;;2.50;;
10687;SDS011;5392;42.688;23.298;2022-08-21T14:53:24;4.50;;;3.03;;
10687;SDS011;5392;42.688;23.298;2022-08-21T14:55:51;6.82;;;4.30;;
10687;SDS011;5392;42.688;23.298;2022-08-21T14:58:38;5.95;;;4.32;;
10687;SDS011;5392;42.688;23.298;2022-08-21T15:01:07;5.28;;;4.53;;
10687;SDS011;5392;42.688;23.298;2022-08-21T15:03:37;4.50;;;4.07;;
10687;SDS011;5392;42.688;23.298;2022-08-21T15:06:04;5.45;;;3.75;;
10687;SDS011;5392;42.688;23.298;2022-08-21T15:08:32;3.28;;;3.08;;
10687;SDS011;5392;42.688;23.298;2022-08-21T15:11:00;5.63;;;4.95;;
10687;SDS011;5392;42.688;23.298;2022-08-21T15:13:48;4.50;;;4.03;;
10687;SDS011;5392;42.688;23.298;2022-08-21T15:16:26;6.93;;;2.90;;
10687;SDS011;5392;42.688;23.298;2022-08-21T15:18:57;3.95;;;3.67;;
10687;SDS011;5392;42.688;23.298;2022-08-21T15:21:24;3.40;;;3.13;;
10687;SDS011;5392;42.688;23.298;2022-08-21T15:23:51;4.40;;;3.78;;
10687;SDS011;5392;42.688;23.298;2022-08-21T15:26:17;7.35;;;3.33;;
10687;SDS011;5392;42.688;23.298;2022-08-21T15:28:45;3.75;;;3.45;;
10687;SDS011;5392;42.688;23.298;2022-08-21T15:31:11;10.52;;;4.30;;
10687;SDS011;5392;42.688;23.298;2022-08-21T15:33:38;7.47;;;3.67;;
10687;SDS011;5392;42.688;23.298;2022-08-21T15:36:05;5.15;;;3.40;;
10687;SDS011;5392;42.688;23.298;2022-08-21T15:38:32;5.28;;;2.83;;
10687;SDS011;5392;42.688;23.298;2022-08-21T15:40:59;5.32;;;3.10;;
10687;SDS011;5392;42.688;23.298;2022-08-21T15:43:30;4.25;;;3.20;;
10687;SDS011;5392;42.688;23.298;2022-08-21T15:46:01;3.45;;;3.15;;
10687;SDS011;5392;42.688;23.298;2022-08-21T15:48:29;4.22;;;2.70;;
10687;SDS011;5392;42.688;23.298;2022-08-21T15:50:55;3.22;;;2.95;;
10687;SDS011;5392;42.688;23.298;2022-08-21T15:53:22;4.15;;;2.53;;
10687;SDS011;5392;42.688;23.298;2022-08-21T15:55:49;6.20;;;3.53;;
10687;SDS011;5392;42.688;23.298;2022-08-21T15:58:16;6.50;;;3.22;;
10687;SDS011;5392;42.688;23.298;2022-08-21T16:00:46;4.35;;;3.05;;
10687;SDS011;5392;42.688;23.298;2022-08-21T16:03:14;4.32;;;2.90;;
10687;SDS011;5392;42.688;23.298;2022-08-21T16:05:44;5.07;;;3.00;;
10687;SDS011;5392;42.688;23.298;2022-08-21T16:08:14;4.10;;;3.22;;
10687;SDS011;5392;42.688;23.298;2022-08-21T16:10:41;3.10;;;2.80;;
10687;SDS011;5392;42.688;23.298;2022-08-21T16:13:14;5.28;;;3.47;;
10687;SDS011;5392;42.688;23.298;2022-08-21T16:15:44;5.95;;;3.10;;
10687;SDS011;5392;42.688;23.298;2022-08-21T16:18:11;3.78;;;3.15;;
10687;SDS011;5392;42.688;23.298;2022-08-21T16:20:38;4.85;;;3.15;;
10687;SDS011;5392;42.688;23.298;2022-08-21T16:23:05;3.65;;;3.50;;
10687;SDS011;5392;42.688;23.298;2022-08-21T16:25:34;4.68;;;3.47;;
10687;SDS011;5392;42.688;23.298;2022-08-21T16:28:05;6.35;;;3.70;;
10687;SDS011;5392;42.688;23.298;2022-08-21T16:30:37;4.85;;;3.58;;
10687;SDS011;5392;42.688;23.298;2022-08-21T16:33:04;6.53;;;3.08;;